Time;durP1;ratioP1;P1;durP2;ratioP2;P2;SDS_P1;SDS_P2;PMS_P1;PMS_P2;Temp;Humidity;BMP_temperature;BMP_pressure;BME280_temperature;BME280_humidity;BME280_pressure;Samples;Min_cycle;Max_cycle;Signal;HPM_P1;HPM_P2
2023/09/02 00:01:27;;;;;;;7.60;4.15;;;;;;;;;;5098034;28;20054;-83
2023/09/02 00:03:54;;;;;;;6.65;3.95;;;;;;;;;;5098789;28;20040;-83
2023/09/02 00:06:21;;;;;;;6.03;3.72;;;;;;;;;;5102006;28;20052;-82
2023/09/02 00:08:48;;;;;;;8.63;3.70;;;;;;;;;;5103353;28;20055;-82
2023/09/02 00:11:15;;;;;;;5.25;3.50;;;;;;;;;;5103631;28;20058;-85
2023/09/02 00:13:41;;;;;;;7.00;3.75;;;;;;;;;;5104060;28;20044;-84
2023/09/02 00:16:08;;;;;;;6.25;3.40;;;;;;;;;;5104827;28;20111;-84
2023/09/02 00:18:34;;;;;;;6.10;3.03;;;;;;;;;;5118413;28;20103;-83
2023/09/02 00:21:01;;;;;;;6.80;3.83;;;;;;;;;;5112407;28;20051;-84
2023/09/02 00:23:31;;;;;;;6.20;3.42;;;;;;;;;;5105876;28;20036;-85
2023/09/02 00:25:58;;;;;;;5.40;3.47;;;;;;;;;;5105362;28;20136;-83
2023/09/02 00:28:24;;;;;;;5.40;3.75;;;;;;;;;;5116340;28;20044;-82
2023/09/02 00:30:51;;;;;;;5.15;3.45;;;;;;;;;;5103900;28;20044;-82
2023/09/02 00:33:17;;;;;;;5.40;3.45;;;;;;;;;;5103167;28;20058;-82
2023/09/02 00:35:44;;;;;;;4.88;3.13;;;;;;;;;;5100626;28;20055;-83
2023/09/02 00:38:10;;;;;;;4.53;3.40;;;;;;;;;;5100656;28;20071;-82
2023/09/02 00:40:43;;;;;;;4.70;3.10;;;;;;;;;;5107442;28;20525;-83
2023/09/02 00:43:09;;;;;;;6.25;3.05;;;;;;;;;;5100710;28;20113;-82
2023/09/02 00:45:36;;;;;;;6.15;3.60;;;;;;;;;;5100675;28;20050;-82
2023/09/02 00:48:03;;;;;;;6.68;3.50;;;;;;;;;;5100759;28;20058;-83
2023/09/02 00:50:29;;;;;;;5.32;3.55;;;;;;;;;;5110269;28;20141;-83
2023/09/02 00:52:56;;;;;;;5.18;3.30;;;;;;;;;;5121315;28;20043;-83
2023/09/02 00:55:22;;;;;;;5.38;3.47;;;;;;;;;;5121744;28;20055;-84
2023/09/02 00:57:50;;;;;;;7.30;3.67;;;;;;;;;;5121083;28;20332;-83
2023/09/02 01:00:18;;;;;;;5.40;3.55;;;;;;;;;;5105801;28;20062;-83
2023/09/02 01:02:46;;;;;;;4.82;2.88;;;;;;;;;;5082826;28;20071;-83
2023/09/02 01:05:14;;;;;;;6.13;3.47;;;;;;;;;;5095122;28;20112;-85
2023/09/02 01:07:41;;;;;;;7.35;3.42;;;;;;;;;;5102261;28;20044;-83
2023/09/02 01:10:08;;;;;;;5.18;2.97;;;;;;;;;;5112144;28;20048;-84
2023/09/02 01:12:36;;;;;;;5.60;3.30;;;;;;;;;;5111189;28;20092;-83
2023/09/02 01:15:04;;;;;;;5.65;2.90;;;;;;;;;;5112311;28;20071;-83
2023/09/02 01:17:30;;;;;;;4.88;3.17;;;;;;;;;;5102915;28;20079;-84
2023/09/02 01:19:59;;;;;;;4.90;3.00;;;;;;;;;;5100557;28;20491;-84
2023/09/02 01:22:43;;;;;;;4.75;3.00;;;;;;;;;;5101511;28;20071;-84
2023/09/02 01:25:26;;;;;;;4.82;2.78;;;;;;;;;;5100797;28;20388;-82
2023/09/02 01:27:58;;;;;;;4.38;2.67;;;;;;;;;;5102340;28;20059;-84
2023/09/02 01:30:28;;;;;;;4.97;3.08;;;;;;;;;;5109779;28;20047;-85
2023/09/02 01:32:57;;;;;;;5.30;2.70;;;;;;;;;;5101531;28;20121;-84
2023/09/02 01:35:27;;;;;;;5.50;3.00;;;;;;;;;;5100209;28;20098;-85
2023/09/02 01:37:56;;;;;;;;;;;;;;;;;;5102196;28;20048;-84
2023/09/02 01:40:25;;;;;;;5.03;2.58;;;;;;;;;;5105458;28;19920;-84
2023/09/02 01:42:55;;;;;;;5.10;2.78;;;;;;;;;;5094386;28;20058;-84
2023/09/02 01:45:23;;;;;;;4.57;2.63;;;;;;;;;;5101285;28;20040;-85
2023/09/02 01:47:52;;;;;;;4.22;2.50;;;;;;;;;;5101703;28;20076;-83
2023/09/02 01:50:22;;;;;;;4.65;2.55;;;;;;;;;;5103101;28;20048;-83
2023/09/02 01:52:49;;;;;;;4.90;2.70;;;;;;;;;;5099457;28;20118;-84
2023/09/02 01:55:16;;;;;;;5.28;2.88;;;;;;;;;;5100557;28;20115;-84
2023/09/02 01:57:43;;;;;;;6.43;4.18;;;;;;;;;;5100471;28;20040;-83
2023/09/02 02:00:13;;;;;;;6.45;4.60;;;;;;;;;;5109256;28;20043;-84
2023/09/02 02:02:39;;;;;;;7.95;4.57;;;;;;;;;;5100594;28;20067;-84
2023/09/02 02:05:08;;;;;;;8.40;4.28;;;;;;;;;;5100543;28;20072;-84
2023/09/02 02:07:38;;;;;;;8.65;4.95;;;;;;;;;;5100977;28;20052;-82
2023/09/02 02:10:09;;;;;;;7.43;4.45;;;;;;;;;;5102177;28;20052;-83
2023/09/02 02:12:36;;;;;;;7.10;4.47;;;;;;;;;;5108176;28;20487;-85
2023/09/02 02:15:03;;;;;;;6.97;4.22;;;;;;;;;;5100489;28;20062;-84
2023/09/02 02:17:31;;;;;;;7.22;4.13;;;;;;;;;;5100437;28;20495;-84
2023/09/02 02:19:58;;;;;;;7.65;5.18;;;;;;;;;;5100259;28;20048;-83
2023/09/02 02:22:24;;;;;;;6.45;4.70;;;;;;;;;;5100182;28;20040;-85
2023/09/02 02:24:51;;;;;;;7.55;4.55;;;;;;;;;;5100218;28;20040;-84
2023/09/02 02:27:17;;;;;;;6.22;4.03;;;;;;;;;;5103292;28;20139;-85
2023/09/02 02:29:44;;;;;;;6.65;4.00;;;;;;;;;;5114178;28;20043;-84
2023/09/02 02:32:10;;;;;;;6.80;4.20;;;;;;;;;;5124100;28;20048;-85
2023/09/02 02:34:38;;;;;;;5.95;3.78;;;;;;;;;;5125601;28;20053;-85
2023/09/02 02:37:05;;;;;;;8.38;4.85;;;;;;;;;;5124011;28;20135;-84
2023/09/02 02:39:31;;;;;;;5.90;3.40;;;;;;;;;;5103900;28;20048;-82
2023/09/02 02:41:58;;;;;;;7.50;4.32;;;;;;;;;;5106251;28;20490;-83
2023/09/02 02:44:24;;;;;;;7.35;3.95;;;;;;;;;;5097954;28;20150;-85
2023/09/02 02:46:51;;;;;;;6.70;3.90;;;;;;;;;;5107564;28;20059;-82
2023/09/02 02:49:18;;;;;;;8.75;4.50;;;;;;;;;;5100099;28;20395;-84
2023/09/02 02:54:54;;;;;;;6.43;4.30;;;;;;;;;;5051135;28;20049;-54
2023/09/02 02:57:20;;;;;;;7.63;3.92;;;;;;;;;;5051829;28;20051;-53
2023/09/02 02:59:47;;;;;;;5.97;3.90;;;;;;;;;;5051852;28;20165;-55
2023/09/02 03:02:14;;;;;;;6.45;3.75;;;;;;;;;;5051950;28;20052;-59
2023/09/02 03:04:46;;;;;;;6.50;4.10;;;;;;;;;;5051862;28;20041;-58
2023/09/02 03:07:13;;;;;;;5.18;3.58;;;;;;;;;;5051905;28;20482;-53
2023/09/02 03:09:39;;;;;;;6.55;4.05;;;;;;;;;;5051710;28;20052;-56
2023/09/02 03:12:08;;;;;;;6.40;3.67;;;;;;;;;;5051393;28;20045;-61
2023/09/02 03:14:34;;;;;;;6.72;4.10;;;;;;;;;;5051497;28;20083;-59
2023/09/02 03:17:01;;;;;;;5.80;4.10;;;;;;;;;;5051713;28;20091;-57
2023/09/02 03:19:27;;;;;;;7.00;3.75;;;;;;;;;;5051790;28;20047;-54
2023/09/02 03:21:54;;;;;;;6.13;3.40;;;;;;;;;;5051649;28;20047;-57
2023/09/02 03:24:21;;;;;;;6.43;3.47;;;;;;;;;;5051624;28;20045;-54
2023/09/02 03:26:47;;;;;;;5.57;3.15;;;;;;;;;;5051225;28;20041;-54
2023/09/02 03:29:15;;;;;;;4.25;2.72;;;;;;;;;;5051793;28;20052;-55
2023/09/02 03:31:42;;;;;;;4.75;2.70;;;;;;;;;;5051842;28;20375;-54
2023/09/02 03:34:08;;;;;;;4.85;2.95;;;;;;;;;;5051608;28;20075;-54
2023/09/02 03:36:35;;;;;;;5.22;3.40;;;;;;;;;;5051706;28;20045;-57
2023/09/02 03:39:02;;;;;;;4.95;2.70;;;;;;;;;;5051849;28;20076;-56
2023/09/02 03:41:29;;;;;;;6.07;3.53;;;;;;;;;;5055400;28;20576;-55
2023/09/02 03:43:56;;;;;;;5.35;3.30;;;;;;;;;;5055683;28;20052;-55
2023/09/02 03:46:25;;;;;;;4.43;3.00;;;;;;;;;;5055658;28;20044;-55
2023/09/02 03:48:53;;;;;;;5.75;3.08;;;;;;;;;;5055460;28;20041;-57
2023/09/02 03:51:19;;;;;;;4.80;3.08;;;;;;;;;;5055793;28;20528;-56
2023/09/02 03:53:46;;;;;;;5.25;2.70;;;;;;;;;;5055476;28;20486;-56
2023/09/02 03:56:12;;;;;;;5.63;2.78;;;;;;;;;;5055513;28;20486;-56
2023/09/02 03:58:39;;;;;;;5.47;3.42;;;;;;;;;;5055387;28;20067;-56
2023/09/02 04:01:06;;;;;;;5.43;3.10;;;;;;;;;;5055459;28;20049;-56
2023/09/02 04:03:36;;;;;;;5.63;3.50;;;;;;;;;;5055182;28;20466;-61
2023/09/02 04:06:03;;;;;;;7.22;4.68;;;;;;;;;;5055365;28;20091;-54
2023/09/02 04:08:33;;;;;;;6.57;4.30;;;;;;;;;;5055042;28;20045;-55
2023/09/02 04:11:01;;;;;;;7.28;4.45;;;;;;;;;;5055297;28;20457;-55
2023/09/02 04:13:28;;;;;;;7.65;4.13;;;;;;;;;;5055168;28;20457;-56
2023/09/02 04:15:56;;;;;;;6.28;4.18;;;;;;;;;;5055250;28;20554;-55
2023/09/02 04:18:23;;;;;;;7.25;4.35;;;;;;;;;;5054899;28;20045;-56
2023/09/02 04:20:51;;;;;;;6.75;3.88;;;;;;;;;;5054981;28;20053;-54
2023/09/02 04:23:18;;;;;;;5.53;3.72;;;;;;;;;;5055345;28;20052;-55
2023/09/02 04:25:46;;;;;;;7.57;4.18;;;;;;;;;;5054694;28;20049;-56
2023/09/02 04:28:13;;;;;;;6.95;3.47;;;;;;;;;;5054750;28;20064;-53
2023/09/02 04:30:40;;;;;;;5.45;3.60;;;;;;;;;;5054720;28;20044;-54
2023/09/02 04:33:06;;;;;;;7.00;3.45;;;;;;;;;;5054604;28;20514;-62
2023/09/02 04:35:36;;;;;;;5.55;3.17;;;;;;;;;;5054511;28;20076;-59
2023/09/02 04:38:04;;;;;;;6.22;3.25;;;;;;;;;;5054819;28;20041;-57
2023/09/02 04:40:31;;;;;;;6.30;3.45;;;;;;;;;;5054547;28;20132;-59
2023/09/02 04:42:58;;;;;;;6.65;3.40;;;;;;;;;;5054594;28;20053;-58
2023/09/02 04:45:24;;;;;;;6.40;3.83;;;;;;;;;;5054161;28;20047;-57
2023/09/02 04:47:52;;;;;;;7.90;3.83;;;;;;;;;;5054226;28;20095;-58
2023/09/02 04:50:18;;;;;;;5.93;3.75;;;;;;;;;;5053800;28;20060;-55
2023/09/02 04:52:45;;;;;;;8.48;4.30;;;;;;;;;;5053858;28;20219;-53
2023/09/02 04:55:13;;;;;;;7.28;4.10;;;;;;;;;;5054094;28;20045;-56
2023/09/02 04:57:40;;;;;;;8.63;4.18;;;;;;;;;;5054113;28;20052;-59
2023/09/02 05:00:09;;;;;;;7.30;4.28;;;;;;;;;;5054062;28;20131;-56
2023/09/02 05:02:35;;;;;;;8.60;4.30;;;;;;;;;;5054000;28;20080;-53
2023/09/02 05:05:02;;;;;;;8.07;4.30;;;;;;;;;;5054131;28;20056;-59
2023/09/02 05:07:28;;;;;;;7.13;4.75;;;;;;;;;;5055034;28;20052;-54
2023/09/02 05:09:55;;;;;;;5.82;4.07;;;;;;;;;;5060193;28;20041;-52
2023/09/02 05:12:23;;;;;;;6.57;3.70;;;;;;;;;;5054036;28;20041;-52
2023/09/02 05:14:50;;;;;;;6.85;3.97;;;;;;;;;;5053912;28;20051;-52
2023/09/02 05:17:16;;;;;;;6.45;4.07;;;;;;;;;;5053774;28;20135;-53
2023/09/02 05:19:43;;;;;;;7.65;4.07;;;;;;;;;;5068376;28;20051;-57
2023/09/02 05:22:10;;;;;;;6.63;4.22;;;;;;;;;;5055778;28;20127;-53
2023/09/02 05:24:37;;;;;;;7.65;4.45;;;;;;;;;;5053883;28;20049;-54
2023/09/02 05:27:04;;;;;;;7.07;4.07;;;;;;;;;;5053629;28;20064;-59
2023/09/02 05:29:32;;;;;;;6.63;3.80;;;;;;;;;;5062677;28;20044;-55
2023/09/02 05:31:58;;;;;;;5.88;3.58;;;;;;;;;;5073662;28;20044;-53
2023/09/02 05:34:25;;;;;;;5.57;3.45;;;;;;;;;;5056316;28;20048;-56
2023/09/02 05:36:52;;;;;;;6.32;3.40;;;;;;;;;;5053651;28;20057;-59
2023/09/02 05:39:18;;;;;;;6.32;3.88;;;;;;;;;;5057265;28;20044;-56
2023/09/02 05:41:45;;;;;;;5.78;3.83;;;;;;;;;;5049607;28;20047;-52
2023/09/02 05:44:11;;;;;;;8.38;4.35;;;;;;;;;;5048927;28;20046;-51
2023/09/02 05:46:39;;;;;;;8.23;4.20;;;;;;;;;;5053190;28;20045;-54
2023/09/02 05:49:06;;;;;;;7.20;3.97;;;;;;;;;;5053696;28;20641;-56
2023/09/02 05:51:33;;;;;;;6.15;3.90;;;;;;;;;;5061138;28;20577;-56
2023/09/02 05:54:00;;;;;;;5.55;3.60;;;;;;;;;;5053125;28;20493;-52
2023/09/02 05:56:27;;;;;;;5.80;4.00;;;;;;;;;;5033385;28;20483;-58
2023/09/02 05:58:53;;;;;;;5.18;3.25;;;;;;;;;;5033121;28;20137;-56
2023/09/02 06:01:20;;;;;;;4.88;3.03;;;;;;;;;;5057757;28;20049;-52
2023/09/02 06:03:48;;;;;;;4.97;2.85;;;;;;;;;;5053770;28;20071;-55
2023/09/02 06:06:15;;;;;;;4.72;2.50;;;;;;;;;;5053232;28;20383;-54
2023/09/02 06:08:41;;;;;;;4.60;2.80;;;;;;;;;;5053011;28;20456;-58
2023/09/02 06:11:08;;;;;;;6.35;3.80;;;;;;;;;;5060586;28;20051;-57
2023/09/02 06:13:35;;;;;;;7.05;4.22;;;;;;;;;;5052795;28;20045;-52
2023/09/02 06:16:04;;;;;;;10.40;4.63;;;;;;;;;;5052877;28;20045;-59
2023/09/02 06:18:31;;;;;;;6.57;4.30;;;;;;;;;;5053104;28;20048;-54
2023/09/02 06:20:59;;;;;;;6.25;3.80;;;;;;;;;;5053783;28;20040;-52
2023/09/02 06:23:26;;;;;;;7.43;4.18;;;;;;;;;;5068635;28;20041;-52
2023/09/02 06:25:56;;;;;;;7.95;4.13;;;;;;;;;;5056554;28;20045;-56
2023/09/02 06:28:23;;;;;;;7.45;4.15;;;;;;;;;;5053519;28;20053;-53
2023/09/02 06:30:50;;;;;;;8.45;3.95;;;;;;;;;;5052751;28;20065;-55
2023/09/02 06:33:17;;;;;;;5.47;3.15;;;;;;;;;;5067886;28;20050;-58
2023/09/02 06:35:43;;;;;;;6.05;4.40;;;;;;;;;;5072534;28;20049;-53
2023/09/02 06:38:11;;;;;;;5.57;3.55;;;;;;;;;;5072312;28;20044;-54
2023/09/02 06:40:38;;;;;;;6.13;4.47;;;;;;;;;;5072747;28;20050;-52
2023/09/02 06:43:04;;;;;;;6.35;3.83;;;;;;;;;;5070002;28;20119;-53
2023/09/02 06:45:31;;;;;;;7.85;4.35;;;;;;;;;;5061391;28;20036;-60
2023/09/02 06:47:58;;;;;;;7.72;3.10;;;;;;;;;;5052669;28;20052;-57
2023/09/02 06:50:24;;;;;;;6.20;3.25;;;;;;;;;;5052383;28;20045;-55
2023/09/02 06:52:51;;;;;;;5.75;3.40;;;;;;;;;;5052179;28;20041;-54
2023/09/02 06:55:19;;;;;;;4.60;2.78;;;;;;;;;;5056955;28;20041;-61
2023/09/02 06:57:46;;;;;;;4.40;2.60;;;;;;;;;;5047660;28;20041;-57
2023/09/02 07:00:14;;;;;;;5.15;3.00;;;;;;;;;;5052068;28;20516;-53
2023/09/02 07:02:42;;;;;;;5.90;2.90;;;;;;;;;;5056465;28;20051;-58
2023/09/02 07:05:09;;;;;;;5.20;3.25;;;;;;;;;;5063720;28;20044;-55
2023/09/02 07:07:37;;;;;;;6.38;3.88;;;;;;;;;;5072046;28;20053;-52
2023/09/02 07:10:04;;;;;;;8.00;4.65;;;;;;;;;;5065988;28;20122;-52
2023/09/02 07:12:32;;;;;;;7.50;4.68;;;;;;;;;;5051721;28;20044;-54
2023/09/02 07:14:59;;;;;;;6.05;3.15;;;;;;;;;;5054861;28;20508;-60
2023/09/02 07:17:26;;;;;;;6.10;3.30;;;;;;;;;;5052126;28;20048;-53
2023/09/02 07:19:52;;;;;;;5.43;2.80;;;;;;;;;;5052136;28;20041;-55
2023/09/02 07:22:19;;;;;;;5.60;3.03;;;;;;;;;;5051637;28;20045;-56
2023/09/02 07:24:45;;;;;;;5.50;3.88;;;;;;;;;;5051953;28;20429;-60
2023/09/02 07:27:12;;;;;;;6.45;3.60;;;;;;;;;;5051888;28;20490;-56
2023/09/02 07:29:40;;;;;;;5.80;4.20;;;;;;;;;;5053058;28;20494;-57
2023/09/02 07:32:06;;;;;;;5.10;3.13;;;;;;;;;;5071827;28;20067;-54
2023/09/02 07:34:37;;;;;;;5.43;3.45;;;;;;;;;;5053050;28;20047;-54
2023/09/02 07:37:04;;;;;;;7.60;4.05;;;;;;;;;;5051674;28;20063;-53
2023/09/02 07:39:31;;;;;;;5.05;2.95;;;;;;;;;;5055744;28;20052;-58
2023/09/02 07:41:58;;;;;;;5.45;3.47;;;;;;;;;;5065425;28;20374;-52
2023/09/02 07:44:24;;;;;;;5.38;3.47;;;;;;;;;;5051671;28;20045;-56
2023/09/02 07:46:54;;;;;;;6.78;4.03;;;;;;;;;;5050813;28;20055;-53
2023/09/02 07:49:20;;;;;;;6.93;4.60;;;;;;;;;;5048214;28;20044;-53
2023/09/02 07:51:47;;;;;;;6.30;5.00;;;;;;;;;;5058597;28;20059;-53
2023/09/02 07:54:14;;;;;;;6.68;5.18;;;;;;;;;;5051250;28;20524;-52
2023/09/02 07:56:41;;;;;;;7.47;5.07;;;;;;;;;;5051632;28;20049;-55
2023/09/02 07:59:07;;;;;;;6.63;3.95;;;;;;;;;;5051233;28;20041;-54
2023/09/02 08:01:34;;;;;;;6.05;3.20;;;;;;;;;;5077105;22;20091;-51
2023/09/02 08:04:02;;;;;;;5.72;2.88;;;;;;;;;;5091256;28;20048;-52
2023/09/02 08:06:28;;;;;;;5.53;2.58;;;;;;;;;;5091738;28;20408;-50
2023/09/02 08:08:55;;;;;;;4.47;2.58;;;;;;;;;;5091727;28;20043;-55
2023/09/02 08:11:22;;;;;;;4.78;2.55;;;;;;;;;;5092976;28;20083;-51
2023/09/02 08:13:48;;;;;;;5.20;2.38;;;;;;;;;;5112008;28;20042;-54
2023/09/02 08:16:15;;;;;;;4.65;2.58;;;;;;;;;;5112138;28;20130;-52
2023/09/02 08:18:41;;;;;;;4.80;2.50;;;;;;;;;;5112041;28;20051;-54
2023/09/02 08:21:10;;;;;;;4.72;2.47;;;;;;;;;;5091369;28;20048;-53
2023/09/02 08:23:38;;;;;;;5.45;2.28;;;;;;;;;;5089333;28;20230;-56
2023/09/02 08:26:11;;;;;;;4.82;2.20;;;;;;;;;;5090435;28;20043;-55
2023/09/02 08:28:38;;;;;;;6.05;2.22;;;;;;;;;;5086068;28;20097;-52
2023/09/02 08:31:04;;;;;;;5.10;2.08;;;;;;;;;;5092311;28;20044;-52
2023/09/02 08:33:31;;;;;;;4.80;2.35;;;;;;;;;;5094736;28;20051;-55
2023/09/02 08:35:58;;;;;;;7.20;2.75;;;;;;;;;;5095028;28;20458;-54
2023/09/02 08:38:26;;;;;;;5.43;2.95;;;;;;;;;;5095029;28;20055;-55
2023/09/02 08:40:53;;;;;;;4.55;2.45;;;;;;;;;;5094822;28;20040;-52
2023/09/02 08:43:21;;;;;;;5.03;2.63;;;;;;;;;;5094662;28;20489;-53
2023/09/02 08:45:50;;;;;;;3.90;2.08;;;;;;;;;;5094208;28;20496;-54
2023/09/02 08:48:23;;;;;;;4.20;2.30;;;;;;;;;;5083443;28;20404;-50
2023/09/02 08:50:51;;;;;;;7.05;2.80;;;;;;;;;;5089855;28;20055;-54
2023/09/02 08:53:18;;;;;;;4.10;2.53;;;;;;;;;;5085810;28;20072;-53
2023/09/02 08:55:48;;;;;;;6.45;2.78;;;;;;;;;;5082263;28;20045;-53
2023/09/02 08:58:15;;;;;;;5.80;2.45;;;;;;;;;;5094636;28;20473;-52
2023/09/02 09:00:43;;;;;;;4.78;2.75;;;;;;;;;;5091962;28;20224;-56
2023/09/02 09:03:11;;;;;;;6.10;2.80;;;;;;;;;;5092158;28;20549;-54
2023/09/02 09:05:40;;;;;;;6.25;3.45;;;;;;;;;;5093148;28;20078;-53
2023/09/02 09:08:07;;;;;;;5.20;3.13;;;;;;;;;;5093925;28;20044;-54
2023/09/02 09:10:35;;;;;;;6.05;2.60;;;;;;;;;;5094203;28;20109;-56
2023/09/02 09:13:05;;;;;;;4.72;2.55;;;;;;;;;;5085844;28;20076;-54
2023/09/02 09:15:36;;;;;;;6.47;2.85;;;;;;;;;;5086335;28;20058;-53
2023/09/02 09:18:04;;;;;;;5.68;2.60;;;;;;;;;;5087447;28;20036;-55
2023/09/02 09:20:31;;;;;;;3.90;2.25;;;;;;;;;;5090931;28;20047;-53
2023/09/02 09:22:58;;;;;;;5.13;2.75;;;;;;;;;;5090764;28;20051;-51
2023/09/02 09:25:24;;;;;;;6.07;2.97;;;;;;;;;;5092299;28;20043;-52
2023/09/02 09:27:51;;;;;;;4.18;2.85;;;;;;;;;;5090667;28;20404;-55
2023/09/02 09:30:30;;;;;;;4.18;2.28;;;;;;;;;;5093819;28;20060;-54
2023/09/02 09:33:01;;;;;;;4.70;2.70;;;;;;;;;;5093719;28;20055;-50
2023/09/02 09:35:28;;;;;;;4.72;2.70;;;;;;;;;;5085565;28;20076;-55
2023/09/02 09:37:55;;;;;;;4.82;2.47;;;;;;;;;;5089949;28;20043;-54
2023/09/02 09:40:30;;;;;;;4.88;2.60;;;;;;;;;;5092672;28;20043;-52
2023/09/02 09:42:56;;;;;;;4.13;2.42;;;;;;;;;;5093446;28;20040;-53
2023/09/02 09:45:23;;;;;;;4.65;2.50;;;;;;;;;;5085006;28;20044;-54
2023/09/02 09:47:51;;;;;;;7.22;2.80;;;;;;;;;;5089152;28;20388;-53
2023/09/02 09:50:18;;;;;;;4.13;2.45;;;;;;;;;;5088100;28;20051;-62
2023/09/02 09:53:02;;;;;;;4.50;2.35;;;;;;;;;;5082246;28;20477;-63
2023/09/02 09:55:29;;;;;;;4.65;2.85;;;;;;;;;;5074503;28;20086;-62
2023/09/02 09:57:57;;;;;;;6.00;2.75;;;;;;;;;;5084346;28;20048;-64
2023/09/02 10:00:24;;;;;;;3.65;2.30;;;;;;;;;;5086304;28;20571;-60
2023/09/02 10:02:53;;;;;;;5.43;2.40;;;;;;;;;;5089075;28;20489;-61
2023/09/02 10:05:27;;;;;;;4.18;2.80;;;;;;;;;;5089153;28;20036;-58
2023/09/02 10:07:58;;;;;;;11.88;4.38;;;;;;;;;;5084646;28;20036;-63
2023/09/02 10:10:29;;;;;;;17.65;8.60;;;;;;;;;;5083563;28;20044;-55
2023/09/02 10:12:56;;;;;;;104.15;48.50;;;;;;;;;;5081938;28;20067;-56
2023/09/02 10:15:26;;;;;;;36.97;16.63;;;;;;;;;;5085832;28;20119;-58
2023/09/02 10:17:55;;;;;;;168.65;82.25;;;;;;;;;;5097037;28;20051;-58
2023/09/02 10:20:25;;;;;;;59.90;30.23;;;;;;;;;;5098375;28;20048;-55
2023/09/02 10:22:52;;;;;;;;;;;;;;;;;;5093857;28;20546;-53
2023/09/02 10:25:24;;;;;;;19.52;8.77;;;;;;;;;;5093211;28;20379;-57
2023/09/02 10:28:00;;;;;;;8.55;4.90;;;;;;;;;;5095177;28;20044;-60
2023/09/02 10:30:32;;;;;;;5.78;2.38;;;;;;;;;;5091717;28;20046;-59
2023/09/02 10:33:11;;;;;;;7.30;4.32;;;;;;;;;;5092489;28;20042;-58
2023/09/02 10:35:42;;;;;;;72.25;36.78;;;;;;;;;;5082713;28;20413;-53
2023/09/02 10:38:12;;;;;;;29.17;14.05;;;;;;;;;;5089369;28;20070;-60
2023/09/02 10:40:40;;;;;;;11.32;5.88;;;;;;;;;;5092519;28;20048;-57
2023/09/02 10:43:07;;;;;;;8.30;4.25;;;;;;;;;;5092829;28;20051;-60
2023/09/02 10:45:34;;;;;;;5.97;3.22;;;;;;;;;;5090939;28;20040;-54
2023/09/02 10:48:03;;;;;;;4.90;2.78;;;;;;;;;;5081047;28;20436;-51
2023/09/02 10:50:30;;;;;;;5.22;2.65;;;;;;;;;;5078393;28;20066;-54
2023/09/02 10:52:57;;;;;;;9.55;4.80;;;;;;;;;;5089641;28;20040;-57
2023/09/02 10:55:23;;;;;;;5.43;2.10;;;;;;;;;;5082603;28;20042;-56
2023/09/02 10:57:54;;;;;;;19.83;8.45;;;;;;;;;;5083488;28;20048;-50
2023/09/02 11:00:22;;;;;;;5.63;2.65;;;;;;;;;;5087118;28;20128;-57
2023/09/02 11:02:52;;;;;;;8.13;4.07;;;;;;;;;;5085613;28;20134;-57
2023/09/02 11:05:20;;;;;;;6.68;2.53;;;;;;;;;;5094396;28;20040;-56
2023/09/02 11:07:48;;;;;;;5.13;2.70;;;;;;;;;;5091548;28;20048;-55
2023/09/02 11:10:18;;;;;;;3.75;2.25;;;;;;;;;;5083784;28;20044;-57
2023/09/02 11:13:07;;;;;;;4.82;2.95;;;;;;;;;;5090597;28;20520;-57
2023/09/02 11:15:35;;;;;;;4.20;2.03;;;;;;;;;;5092442;28;20046;-55
2023/09/02 11:18:29;;;;;;;4.68;2.60;;;;;;;;;;5087399;28;20047;-56
2023/09/02 11:20:57;;;;;;;3.88;2.10;;;;;;;;;;5083150;28;20050;-55
2023/09/02 11:23:24;;;;;;;4.47;2.53;;;;;;;;;;5096893;28;20055;-57
2023/09/02 11:26:02;;;;;;;5.18;2.60;;;;;;;;;;5087441;28;20389;-57
2023/09/02 11:28:30;;;;;;;4.45;2.30;;;;;;;;;;5087029;28;20043;-55
2023/09/02 11:31:05;;;;;;;5.65;2.70;;;;;;;;;;5083434;28;20117;-57
2023/09/02 11:33:34;;;;;;;5.40;2.92;;;;;;;;;;5075738;28;21839;-57
2023/09/02 11:36:06;;;;;;;4.38;2.35;;;;;;;;;;5082602;28;20044;-57
2023/09/02 11:38:34;;;;;;;5.78;2.70;;;;;;;;;;5092649;28;20071;-53
2023/09/02 11:41:01;;;;;;;4.20;2.40;;;;;;;;;;5091533;28;20048;-56
2023/09/02 11:43:30;;;;;;;4.75;2.70;;;;;;;;;;5091623;28;20040;-57
2023/09/02 11:45:58;;;;;;;4.60;2.83;;;;;;;;;;5091682;28;20045;-56
2023/09/02 11:48:25;;;;;;;4.70;2.50;;;;;;;;;;5091749;28;20106;-56
2023/09/02 11:50:52;;;;;;;4.07;2.50;;;;;;;;;;5091839;28;20051;-55
2023/09/02 11:53:21;;;;;;;5.78;2.58;;;;;;;;;;5078220;28;20044;-56
2023/09/02 11:55:49;;;;;;;5.75;3.30;;;;;;;;;;5078673;28;20050;-52
2023/09/02 11:58:24;;;;;;;4.60;2.30;;;;;;;;;;5086935;28;20051;-55
2023/09/02 12:00:51;;;;;;;5.13;2.58;;;;;;;;;;5084274;28;20297;-55
2023/09/02 12:03:24;;;;;;;3.65;1.98;;;;;;;;;;5084951;28;20147;-52
2023/09/02 12:05:54;;;;;;;4.28;2.10;;;;;;;;;;5078066;28;20510;-54
2023/09/02 12:08:23;;;;;;;4.50;2.20;;;;;;;;;;5090485;28;20404;-51
2023/09/02 12:10:50;;;;;;;4.95;2.40;;;;;;;;;;5086822;28;20151;-53
2023/09/02 12:13:17;;;;;;;6.07;3.08;;;;;;;;;;5091326;28;20127;-50
2023/09/02 12:15:48;;;;;;;4.00;2.55;;;;;;;;;;5084078;28;20531;-53
2023/09/02 12:18:15;;;;;;;3.85;1.90;;;;;;;;;;5090832;28;20077;-51
2023/09/02 12:20:42;;;;;;;5.28;2.60;;;;;;;;;;5087839;28;20131;-53
2023/09/02 12:23:09;;;;;;;3.58;2.30;;;;;;;;;;5087765;28;20067;-51
2023/09/02 12:25:38;;;;;;;3.92;2.00;;;;;;;;;;5089387;28;20511;-54
2023/09/02 12:28:12;;;;;;;4.93;2.40;;;;;;;;;;5093839;28;20059;-56
2023/09/02 12:30:40;;;;;;;3.95;2.10;;;;;;;;;;5085393;28;20338;-53
2023/09/02 12:33:07;;;;;;;3.90;2.10;;;;;;;;;;5081980;28;20515;-55
2023/09/02 12:35:33;;;;;;;5.53;2.55;;;;;;;;;;5086556;28;20479;-54
2023/09/02 12:38:01;;;;;;;4.45;2.10;;;;;;;;;;5094910;28;20048;-55
2023/09/02 12:40:29;;;;;;;6.10;2.10;;;;;;;;;;5094809;28;20493;-53
2023/09/02 12:42:57;;;;;;;3.83;1.98;;;;;;;;;;5094908;28;20515;-52
2023/09/02 12:45:28;;;;;;;3.97;2.15;;;;;;;;;;5094472;28;20087;-55
2023/09/02 12:47:56;;;;;;;4.05;2.08;;;;;;;;;;5094759;28;20485;-56
2023/09/02 12:50:23;;;;;;;5.22;2.20;;;;;;;;;;5094519;28;20044;-55
2023/09/02 12:52:56;;;;;;;2.92;1.63;;;;;;;;;;5094821;28;20056;-51
2023/09/02 12:55:23;;;;;;;3.38;1.77;;;;;;;;;;5094586;28;20393;-55
2023/09/02 12:57:49;;;;;;;3.67;1.85;;;;;;;;;;5094387;28;20475;-52
2023/09/02 13:00:18;;;;;;;3.17;1.67;;;;;;;;;;5094321;28;20054;-51
2023/09/02 13:02:46;;;;;;;4.60;2.17;;;;;;;;;;5094416;28;20558;-52
2023/09/02 13:05:11;;;;;;;3.72;1.80;;;;;;;;;;5094480;28;20044;-54
2023/09/02 13:07:38;;;;;;;3.50;1.80;;;;;;;;;;5094616;28;20397;-55
2023/09/02 13:10:05;;;;;;;4.85;2.30;;;;;;;;;;5094040;28;20051;-51
2023/09/02 13:12:33;;;;;;;3.80;1.70;;;;;;;;;;5092652;28;20127;-50
2023/09/02 13:15:00;;;;;;;6.18;1.92;;;;;;;;;;5094035;28;20052;-53
2023/09/02 13:17:28;;;;;;;4.53;2.10;;;;;;;;;;5094041;28;20044;-53
2023/09/02 13:19:55;;;;;;;6.68;2.40;;;;;;;;;;5094117;28;20052;-53
2023/09/02 13:22:21;;;;;;;4.40;2.10;;;;;;;;;;5092318;28;20358;-59
2023/09/02 13:24:48;;;;;;;4.53;2.00;;;;;;;;;;5092862;28;20119;-52
2023/09/02 13:27:17;;;;;;;4.72;2.28;;;;;;;;;;5093382;28;20128;-50
2023/09/02 13:29:43;;;;;;;3.08;1.70;;;;;;;;;;5083846;28;20133;-56
2023/09/02 13:32:16;;;;;;;3.28;1.90;;;;;;;;;;5090051;28;20091;-54
2023/09/02 13:34:44;;;;;;;4.25;1.98;;;;;;;;;;5093847;28;20044;-55
2023/09/02 13:37:21;;;;;;;4.53;1.80;;;;;;;;;;5093134;28;20052;-54
2023/09/02 13:39:53;;;;;;;4.03;1.75;;;;;;;;;;5091252;28;20051;-55
2023/09/02 13:42:20;;;;;;;3.47;1.58;;;;;;;;;;5097524;28;20070;-53
2023/09/02 13:44:47;;;;;;;4.10;1.85;;;;;;;;;;5085747;28;20040;-50
2023/09/02 13:47:15;;;;;;;3.75;1.70;;;;;;;;;;5101462;28;20079;-51
2023/09/02 13:49:47;;;;;;;4.82;2.00;;;;;;;;;;5102047;28;20044;-54
2023/09/02 13:52:14;;;;;;;3.53;1.70;;;;;;;;;;5085324;28;20510;-54
2023/09/02 13:54:42;;;;;;;4.35;2.20;;;;;;;;;;5082490;28;20066;-51
2023/09/02 13:57:09;;;;;;;3.50;1.90;;;;;;;;;;5086584;28;20060;-52
2023/09/02 13:59:35;;;;;;;4.05;2.10;;;;;;;;;;5086247;28;20056;-52
2023/09/02 14:02:03;;;;;;;3.13;1.70;;;;;;;;;;5092088;28;20047;-53
2023/09/02 14:04:30;;;;;;;5.05;1.67;;;;;;;;;;5092577;28;20131;-57
2023/09/02 14:07:00;;;;;;;5.22;3.33;;;;;;;;;;5095472;28;20043;-56
2023/09/02 14:09:26;;;;;;;4.63;3.45;;;;;;;;;;5080015;28;20040;-51
2023/09/02 14:11:54;;;;;;;5.78;2.20;;;;;;;;;;5093550;28;20052;-54
2023/09/02 14:14:22;;;;;;;4.75;1.77;;;;;;;;;;5088145;28;20047;-51
2023/09/02 14:16:49;;;;;;;3.00;1.77;;;;;;;;;;5085665;28;20045;-54
2023/09/02 14:19:16;;;;;;;3.97;2.03;;;;;;;;;;5086750;28;20048;-54
2023/09/02 14:21:42;;;;;;;2.60;1.65;;;;;;;;;;5087067;28;20122;-55
2023/09/02 14:24:10;;;;;;;3.53;1.92;;;;;;;;;;5096224;28;20489;-57
2023/09/02 14:26:37;;;;;;;4.05;1.83;;;;;;;;;;5092531;28;20058;-54
2023/09/02 14:29:07;;;;;;;3.90;1.90;;;;;;;;;;5097829;28;20043;-55
2023/09/02 14:31:34;;;;;;;3.03;1.55;;;;;;;;;;5099754;28;20109;-57
2023/09/02 14:34:00;;;;;;;4.25;1.60;;;;;;;;;;5092358;28;20044;-55
2023/09/02 14:36:27;;;;;;;3.90;1.98;;;;;;;;;;5094109;28;20049;-56
2023/09/02 14:38:53;;;;;;;2.63;1.50;;;;;;;;;;5087297;28;20059;-55
2023/09/02 14:41:21;;;;;;;4.10;1.90;;;;;;;;;;5082514;28;20040;-57
2023/09/02 14:43:50;;;;;;;3.72;1.40;;;;;;;;;;5092320;28;20052;-54
2023/09/02 14:46:17;;;;;;;2.88;1.30;;;;;;;;;;5096424;28;20036;-53
2023/09/02 14:48:44;;;;;;;3.03;1.42;;;;;;;;;;5087286;28;20497;-54
2023/09/02 14:51:11;;;;;;;2.90;1.48;;;;;;;;;;5084126;28;20128;-53